createdAt,value
2022-09-21T00:01:20.374Z,6.70
2022-09-21T00:03:48.340Z,5.57
2022-09-21T00:06:18.393Z,5.22
2022-09-21T00:08:46.818Z,5.15
2022-09-21T00:11:25.136Z,5.65
2022-09-21T00:13:55.536Z,5.78
2022-09-21T00:16:23.243Z,4.78
2022-09-21T00:18:50.421Z,6.35
2022-09-21T00:21:18.226Z,4.72
2022-09-21T00:23:45.976Z,4.72
2022-09-21T00:26:16.746Z,5.65
2022-09-21T00:28:44.853Z,4.22
2022-09-21T00:31:14.810Z,4.65
2022-09-21T00:33:43.922Z,7.47
2022-09-21T00:36:14.609Z,4.85
2022-09-21T00:38:41.726Z,5.25
2022-09-21T00:41:10.482Z,5.22
2022-09-21T00:43:41.153Z,4.57
2022-09-21T00:46:28.035Z,6.25
2022-09-21T00:48:55.271Z,7.25
2022-09-21T00:51:22.809Z,7.95
2022-09-21T00:53:54.906Z,5.38
2022-09-21T00:56:23.588Z,7.25
2022-09-21T00:58:54.952Z,4.50
2022-09-21T01:01:22.734Z,4.68
2022-09-21T01:03:51.848Z,4.55
2022-09-21T01:06:21.439Z,5.97
2022-09-21T01:08:53.167Z,5.47
2022-09-21T01:11:58.018Z,6.15
2022-09-21T01:14:33.855Z,5.18
2022-09-21T01:17:17.427Z,5.43
2022-09-21T01:20:02.723Z,5.03
2022-09-21T01:23:03.651Z,5.32
2022-09-21T01:25:59.019Z,5.45
2022-09-21T01:28:41.530Z,4.90
2022-09-21T01:31:17.928Z,7.38
2022-09-21T01:33:51.717Z,4.82
2022-09-21T01:36:25.107Z,8.27
2022-09-21T01:38:56.636Z,4.53
2022-09-21T01:41:26.929Z,5.65
2022-09-21T01:43:57.790Z,5.35
2022-09-21T01:46:29.414Z,6.40
2022-09-21T01:49:06.090Z,4.75
2022-09-21T01:51:35.514Z,5.05
2022-09-21T01:54:10.511Z,7.82
2022-09-21T01:56:47.068Z,7.20
2022-09-21T01:59:25.781Z,6.72
2022-09-21T02:01:57.779Z,5.20
2022-09-21T02:04:25.193Z,6.25
2022-09-21T02:06:53.592Z,5.68
2022-09-21T02:09:20.880Z,6.82
2022-09-21T02:11:48.060Z,7.40
2022-09-21T02:14:22.722Z,6.50
2022-09-21T02:17:19.500Z,5.75
2022-09-21T02:19:56.077Z,5.65
2022-09-21T02:22:36.397Z,5.22
2022-09-21T02:25:11.627Z,6.38
2022-09-21T02:27:56.568Z,4.68
2022-09-21T02:30:26.094Z,5.60
2022-09-21T02:33:24.092Z,5.37
2022-09-21T02:36:00.030Z,4.55
2022-09-21T02:38:52.561Z,6.28
2022-09-21T02:41:24.650Z,6.53
2022-09-21T02:43:57.817Z,5.68
2022-09-21T02:46:29.583Z,4.75
2022-09-21T02:49:03.163Z,4.93
2022-09-21T02:51:35.107Z,4.38
2022-09-21T02:54:07.132Z,4.75
2022-09-21T02:56:35.381Z,4.78
2022-09-21T02:59:04.984Z,9.85
2022-09-21T03:01:33.343Z,4.68
2022-09-21T03:04:00.708Z,4.53
2022-09-21T03:06:28.380Z,5.22
2022-09-21T03:08:55.514Z,4.03
2022-09-21T03:11:22.687Z,5.10
2022-09-21T03:13:50.013Z,5.55
2022-09-21T03:16:17.274Z,4.55
2022-09-21T03:18:44.539Z,6.38
2022-09-21T03:21:12.906Z,5.82
2022-09-21T03:23:41.326Z,4.22
2022-09-21T03:26:09.239Z,5.20
2022-09-21T03:28:36.406Z,5.38
2022-09-21T03:31:03.777Z,4.32
2022-09-21T03:33:30.900Z,4.28
2022-09-21T03:35:58.111Z,5.22
2022-09-21T03:38:27.079Z,4.03
2022-09-21T03:40:58.230Z,5.57
2022-09-21T03:43:26.008Z,9.32
2022-09-21T03:45:54.062Z,7.35
2022-09-21T03:48:22.471Z,3.05
2022-09-21T03:50:49.616Z,5.35
2022-09-21T03:53:17.391Z,4.65
2022-09-21T03:55:44.753Z,5.75
2022-09-21T03:58:11.921Z,4.28
2022-09-21T04:00:39.643Z,4.75
2022-09-21T04:03:07.149Z,3.95
2022-09-21T04:05:34.777Z,6.22
2022-09-21T04:08:02.479Z,4.53
2022-09-21T04:10:33.128Z,4.57
2022-09-21T04:13:04.511Z,6.65
2022-09-21T04:15:32.076Z,6.43
2022-09-21T04:17:59.589Z,3.50
2022-09-21T04:20:27.732Z,5.25
2022-09-21T04:22:54.856Z,4.20
2022-09-21T04:25:21.919Z,6.03
2022-09-21T04:27:49.246Z,5.90
2022-09-21T04:30:17.289Z,3.70
2022-09-21T04:32:44.647Z,4.25
2022-09-21T04:35:11.715Z,3.65
2022-09-21T04:37:38.891Z,6.63
2022-09-21T04:40:07.387Z,3.22
2022-09-21T04:42:34.557Z,4.10
2022-09-21T04:45:01.637Z,4.70
2022-09-21T04:47:31.420Z,4.80
2022-09-21T04:49:58.634Z,6.20
2022-09-21T04:52:25.963Z,3.70
2022-09-21T04:54:53.526Z,2.90
2022-09-21T04:57:21.050Z,4.45
2022-09-21T04:59:48.295Z,4.97
2022-09-21T05:02:15.434Z,4.70
2022-09-21T05:04:43.421Z,4.78
2022-09-21T05:07:12.648Z,4.25
2022-09-21T05:09:58.188Z,5.93
2022-09-21T05:12:25.394Z,4.68
2022-09-21T05:14:52.657Z,6.30
2022-09-21T05:17:23.185Z,4.43
2022-09-21T05:19:50.884Z,6.20
2022-09-21T05:22:18.486Z,4.55
2022-09-21T05:24:45.866Z,4.05
2022-09-21T05:27:13.411Z,3.88
2022-09-21T05:29:41.639Z,3.60
2022-09-21T05:32:28.977Z,3.60
2022-09-21T05:35:01.977Z,4.78
2022-09-21T05:37:38.737Z,3.88
2022-09-21T05:40:07.389Z,3.58
2022-09-21T05:42:35.040Z,3.35
2022-09-21T05:45:02.634Z,3.90
2022-09-21T05:47:42.892Z,8.35
2022-09-21T05:50:47.867Z,3.63
2022-09-21T05:53:15.072Z,3.92
2022-09-21T05:56:06.743Z,3.72
2022-09-21T05:59:06.136Z,3.65
2022-09-21T06:01:48.504Z,5.13
2022-09-21T06:04:16.134Z,3.15
2022-09-21T06:06:43.190Z,3.65
2022-09-21T06:09:10.461Z,3.72
2022-09-21T06:11:37.887Z,4.55
2022-09-21T06:14:05.059Z,5.60
2022-09-21T06:16:42.860Z,4.18
2022-09-21T06:19:13.662Z,5.22
2022-09-21T06:21:40.923Z,4.35
2022-09-21T06:24:08.279Z,4.80
2022-09-21T06:26:35.703Z,4.57
2022-09-21T06:29:02.796Z,6.47
2022-09-21T06:31:30.612Z,7.25
2022-09-21T06:33:58.024Z,8.35
2022-09-21T06:36:25.186Z,5.40
2022-09-21T06:38:52.342Z,13.27
2022-09-21T06:41:21.414Z,6.70
2022-09-21T06:43:48.842Z,10.38
2022-09-21T06:46:16.131Z,6.40
2022-09-21T06:48:43.292Z,6.43
2022-09-21T06:51:10.572Z,3.60
2022-09-21T06:53:37.665Z,5.13
2022-09-21T06:56:09.980Z,5.07
2022-09-21T06:58:38.191Z,6.47
2022-09-21T07:01:10.106Z,5.53
2022-09-21T07:03:38.371Z,4.95
2022-09-21T07:06:06.585Z,7.10
2022-09-21T07:11:23.976Z,2.90
2022-09-21T07:13:51.457Z,3.58
2022-09-21T07:16:19.988Z,3.75
2022-09-21T07:18:47.647Z,2.72
2022-09-21T07:21:15.189Z,6.05
2022-09-21T07:23:42.350Z,6.68
2022-09-21T07:26:15.296Z,3.78
2022-09-21T07:28:42.993Z,3.70
2022-09-21T07:31:15.785Z,4.00
2022-09-21T07:33:44.376Z,3.35
2022-09-21T07:36:13.272Z,3.83
2022-09-21T07:38:42.652Z,6.57
2022-09-21T07:41:14.402Z,3.80
2022-09-21T07:43:42.492Z,4.00
2022-09-21T07:46:12.248Z,4.43
2022-09-21T07:48:39.816Z,4.63
2022-09-21T07:51:09.726Z,3.05
2022-09-21T07:53:38.203Z,3.03
2022-09-21T07:56:08.561Z,5.20
2022-09-21T08:01:22.040Z,2.45
2022-09-21T08:03:54.087Z,2.72
2022-09-21T08:06:22.449Z,3.10
2022-09-21T08:08:55.132Z,2.63
2022-09-21T08:11:26.147Z,2.72
2022-09-21T08:13:56.815Z,3.03
2022-09-21T08:16:24.280Z,2.73
2022-09-21T08:18:52.739Z,2.22
2022-09-21T08:21:20.913Z,2.28
2022-09-21T08:23:49.501Z,2.08
2022-09-21T08:26:19.608Z,1.73
2022-09-21T08:28:51.455Z,2.90
2022-09-21T08:31:21.264Z,1.85
2022-09-21T08:33:50.128Z,4.28
2022-09-21T08:36:18.649Z,4.05
2022-09-21T08:38:46.388Z,1.98
2022-09-21T08:41:25.124Z,1.75
2022-09-21T08:43:58.338Z,2.92
2022-09-21T08:46:31.136Z,1.40
2022-09-21T08:49:11.819Z,1.45
2022-09-21T08:51:48.296Z,1.98
2022-09-21T08:54:25.669Z,2.83
2022-09-21T08:57:05.061Z,2.45
2022-09-21T08:59:34.585Z,1.45
2022-09-21T09:02:40.731Z,1.48
2022-09-21T09:05:41.696Z,3.15
2022-09-21T09:08:19.601Z,2.05
2022-09-21T09:11:17.438Z,2.90
2022-09-21T09:14:03.501Z,2.20
2022-09-21T09:16:42.436Z,2.85
2022-09-21T09:19:29.070Z,3.35
2022-09-21T09:21:57.143Z,1.90
2022-09-21T09:24:41.822Z,1.40
2022-09-21T09:27:20.383Z,2.15
2022-09-21T09:29:57.318Z,2.78
2022-09-21T09:32:34.888Z,3.35
2022-09-21T09:35:14.116Z,1.00
2022-09-21T09:37:42.910Z,2.05
2022-09-21T09:40:13.868Z,1.90
2022-09-21T09:43:07.412Z,4.38
2022-09-21T09:45:54.584Z,2.70
2022-09-21T09:48:24.376Z,1.48
2022-09-21T09:50:51.409Z,1.40
2022-09-21T09:53:22.761Z,3.15
2022-09-21T09:55:52.446Z,2.05
2022-09-21T09:58:26.045Z,1.40
2022-09-21T10:00:55.600Z,2.78
2022-09-21T10:03:25.030Z,1.23
2022-09-21T10:05:56.484Z,3.27
2022-09-21T10:08:44.908Z,1.17
2022-09-21T10:11:14.280Z,0.95
2022-09-21T10:13:47.850Z,0.98
2022-09-21T10:16:22.361Z,1.55
2022-09-21T10:18:59.259Z,1.95
2022-09-21T10:21:34.740Z,1.35
2022-09-21T10:24:06.771Z,1.52
2022-09-21T10:26:54.914Z,1.63
2022-09-21T10:29:25.783Z,1.63
2022-09-21T10:32:19.227Z,1.50
2022-09-21T10:35:05.547Z,2.00
2022-09-21T10:37:41.498Z,1.10
2022-09-21T10:40:20.811Z,2.15
2022-09-21T10:42:56.407Z,1.98
2022-09-21T10:45:28.919Z,0.98
2022-09-21T10:48:09.136Z,1.80
2022-09-21T10:50:50.771Z,3.60
2022-09-21T10:53:31.132Z,1.10
2022-09-21T10:56:22.389Z,0.88
2022-09-21T10:59:11.131Z,1.38
2022-09-21T11:01:45.002Z,2.28
2022-09-21T11:04:18.501Z,1.95
2022-09-21T11:06:51.229Z,1.48
2022-09-21T11:09:28.976Z,1.67
2022-09-21T11:12:08.456Z,2.10
2022-09-21T11:15:11.166Z,2.97
2022-09-21T11:18:03.145Z,1.20
2022-09-21T11:20:42.251Z,2.22
2022-09-21T11:23:32.062Z,1.83
2022-09-21T11:26:37.714Z,1.20
2022-09-21T11:32:25.149Z,2.97
2022-09-21T11:35:12.812Z,2.22
2022-09-21T11:38:08.926Z,1.90
2022-09-21T11:40:38.854Z,1.15
2022-09-21T11:43:50.581Z,4.38
2022-09-21T11:46:23.476Z,2.95
2022-09-21T11:49:28.214Z,2.17
2022-09-21T11:52:11.884Z,2.20
2022-09-21T11:54:39.463Z,4.88
2022-09-21T11:57:19.577Z,2.20
2022-09-21T12:00:02.593Z,2.42
2022-09-21T12:02:59.780Z,3.75
2022-09-21T12:06:03.894Z,2.03
2022-09-21T12:08:42.710Z,9.27
2022-09-21T12:11:24.958Z,1.85
2022-09-21T12:14:22.471Z,1.73
2022-09-21T12:17:16.730Z,2.08
2022-09-21T12:20:18.032Z,2.20
2022-09-21T12:22:49.740Z,4.78
2022-09-21T12:25:45.159Z,2.40
2022-09-21T12:28:24.943Z,4.85
2022-09-21T12:31:01.934Z,1.83
2022-09-21T12:33:34.996Z,2.35
2022-09-21T12:36:24.530Z,4.18
2022-09-21T12:39:28.786Z,3.13
2022-09-21T12:42:34.251Z,1.52
2022-09-21T12:45:15.427Z,1.27
2022-09-21T12:47:58.527Z,1.85
2022-09-21T12:50:45.038Z,1.27
2022-09-21T12:53:20.531Z,1.75
2022-09-21T12:56:01.546Z,2.17
2022-09-21T12:58:44.416Z,1.55
2022-09-21T13:01:32.982Z,1.48
2022-09-21T13:04:12.758Z,1.75
2022-09-21T13:07:11.216Z,3.17
2022-09-21T13:09:42.597Z,1.70
2022-09-21T13:12:24.271Z,1.83
2022-09-21T13:15:04.533Z,2.95
2022-09-21T13:17:33.854Z,2.15
2022-09-21T13:20:18.599Z,1.48
2022-09-21T13:22:49.226Z,1.20
2022-09-21T13:25:24.986Z,2.80
2022-09-21T13:28:13.876Z,2.05
2022-09-21T13:30:50.036Z,1.27
2022-09-21T13:33:20.153Z,4.82
2022-09-21T13:36:01.297Z,1.63
2022-09-21T13:38:54.522Z,0.90
2022-09-21T13:44:18.522Z,1.63
2022-09-21T13:46:49.824Z,1.05
2022-09-21T13:49:20.098Z,3.78
2022-09-21T13:52:08.812Z,1.63
2022-09-21T13:54:35.801Z,1.25
2022-09-21T13:57:25.227Z,1.58
2022-09-21T14:00:14.128Z,1.83
2022-09-21T14:02:55.068Z,1.17
2022-09-21T14:05:38.400Z,2.30
2022-09-21T14:08:22.550Z,1.13
2022-09-21T14:11:03.877Z,1.48
2022-09-21T14:13:44.038Z,7.93
2022-09-21T14:16:29.669Z,1.38
2022-09-21T14:18:56.945Z,1.90
2022-09-21T14:21:24.318Z,1.50
2022-09-21T14:24:07.710Z,2.60
2022-09-21T14:26:47.901Z,1.50
2022-09-21T14:29:27.546Z,1.63
2022-09-21T14:32:01.752Z,1.00
2022-09-21T14:34:37.071Z,0.98
2022-09-21T14:37:29.299Z,1.90
2022-09-21T14:39:58.776Z,1.13
2022-09-21T14:42:29.316Z,3.43
2022-09-21T14:45:01.651Z,3.63
2022-09-21T14:47:47.838Z,1.38
2022-09-21T14:50:57.969Z,1.75
2022-09-21T14:54:12.720Z,1.67
2022-09-21T14:56:45.650Z,1.33
2022-09-21T14:59:43.511Z,1.00
2022-09-21T15:02:18.287Z,1.33
2022-09-21T15:05:13.198Z,1.73
2022-09-21T15:08:28.029Z,1.70
2022-09-21T15:11:19.978Z,1.55
2022-09-21T15:14:17.596Z,1.40
2022-09-21T15:16:47.489Z,1.73
2022-09-21T15:19:28.622Z,1.45
2022-09-21T15:22:15.656Z,1.27
2022-09-21T15:24:57.344Z,2.92
2022-09-21T15:27:27.936Z,2.60
2022-09-21T15:29:56.851Z,1.25
2022-09-21T15:32:37.328Z,2.33
2022-09-21T15:37:45.880Z,1.15
2022-09-21T15:40:20.708Z,1.38
2022-09-21T15:43:04.865Z,1.48
2022-09-21T15:45:47.206Z,2.10
2022-09-21T15:48:14.610Z,1.98
2022-09-21T15:50:44.191Z,4.88
2022-09-21T15:53:22.276Z,1.93
2022-09-21T15:55:50.365Z,2.78
2022-09-21T15:58:27.411Z,2.30
2022-09-21T16:00:56.441Z,3.05
2022-09-21T16:03:26.327Z,3.90
2022-09-21T16:05:57.196Z,2.15
2022-09-21T16:08:29.135Z,3.05
2022-09-21T16:11:20.284Z,3.90
2022-09-21T16:14:06.840Z,1.60
2022-09-21T16:16:33.988Z,2.30
2022-09-21T16:19:01.177Z,2.35
2022-09-21T16:21:32.812Z,2.33
2022-09-21T16:24:22.566Z,2.35
2022-09-21T16:27:02.049Z,2.10
2022-09-21T16:29:42.421Z,3.00
2022-09-21T16:35:27.467Z,3.75
2022-09-21T16:37:57.977Z,1.17
2022-09-21T16:40:29.353Z,3.08
2022-09-21T16:42:57.233Z,1.83
2022-09-21T16:45:31.944Z,2.85
2022-09-21T16:47:59.855Z,2.78
2022-09-21T16:50:27.312Z,2.15
2022-09-21T16:52:54.480Z,4.18
2022-09-21T16:55:25.556Z,2.00
2022-09-21T16:57:55.427Z,2.53
2022-09-21T17:00:22.597Z,2.85
2022-09-21T17:02:50.068Z,3.58
2022-09-21T17:05:20.874Z,3.33
2022-09-21T17:07:59.099Z,3.00
2022-09-21T17:10:32.225Z,4.03
2022-09-21T17:12:59.512Z,4.70
2022-09-21T17:15:28.826Z,4.32
2022-09-21T17:17:58.299Z,4.60
2022-09-21T17:20:35.356Z,4.23
2022-09-21T17:23:03.396Z,4.68
2022-09-21T17:25:32.988Z,8.27
2022-09-21T17:28:01.620Z,4.38
2022-09-21T17:30:29.462Z,7.28
2022-09-21T17:32:58.624Z,4.50
2022-09-21T17:35:31.970Z,4.97
2022-09-21T17:38:00.172Z,5.30
2022-09-21T17:40:28.107Z,4.82
2022-09-21T17:43:05.326Z,4.53
2022-09-21T17:45:50.602Z,3.88
2022-09-21T17:48:22.577Z,3.47
2022-09-21T17:50:50.800Z,4.03
2022-09-21T17:53:43.504Z,6.00
2022-09-21T17:56:41.200Z,5.25
2022-09-21T17:59:24.299Z,3.65
2022-09-21T18:01:52.463Z,5.85
2022-09-21T18:04:19.902Z,5.30
2022-09-21T18:06:47.245Z,5.32
2022-09-21T18:09:14.611Z,4.47
2022-09-21T18:12:02.398Z,4.00
2022-09-21T18:14:34.489Z,4.53
2022-09-21T18:17:35.109Z,6.32
2022-09-21T18:20:34.576Z,9.27
2022-09-21T18:23:23.777Z,6.50
2022-09-21T18:25:56.829Z,5.18
2022-09-21T18:28:40.639Z,7.93
2022-09-21T18:31:47.599Z,4.97
2022-09-21T18:34:35.670Z,8.40
2022-09-21T18:37:36.994Z,6.90
2022-09-21T18:40:48.926Z,6.18
2022-09-21T18:43:39.698Z,4.50
2022-09-21T18:46:19.129Z,7.97
2022-09-21T18:49:03.523Z,7.70
2022-09-21T18:51:42.281Z,6.63
2022-09-21T18:54:20.042Z,7.07
2022-09-21T18:56:47.630Z,6.65
2022-09-21T18:59:16.315Z,12.10
2022-09-21T19:01:45.057Z,10.07
2022-09-21T19:04:12.813Z,9.70
2022-09-21T19:07:00.116Z,7.80
2022-09-21T19:10:00.269Z,11.07
2022-09-21T19:13:00.511Z,10.98
2022-09-21T19:16:01.508Z,14.75
2022-09-21T19:18:52.688Z,10.40
2022-09-21T19:21:46.037Z,8.75
2022-09-21T19:24:41.678Z,8.38
2022-09-21T19:27:14.457Z,7.88
2022-09-21T19:30:06.348Z,9.32
2022-09-21T19:32:48.878Z,8.35
2022-09-21T19:35:22.136Z,10.02
2022-09-21T19:37:50.877Z,7.57
2022-09-21T19:40:20.819Z,10.02
2022-09-21T19:42:54.072Z,8.75
2022-09-21T19:45:42.420Z,12.35
2022-09-21T19:48:13.989Z,9.23
2022-09-21T19:50:59.499Z,9.25
2022-09-21T19:53:46.098Z,9.90
2022-09-21T19:56:35.987Z,10.27
2022-09-21T19:59:21.935Z,7.45
2022-09-21T20:01:56.900Z,5.38
2022-09-21T20:04:46.021Z,4.95
2022-09-21T20:07:25.241Z,5.47
2022-09-21T20:10:26.451Z,4.70
2022-09-21T20:13:12.681Z,7.53
2022-09-21T20:15:52.454Z,6.97
2022-09-21T20:18:32.431Z,5.85
2022-09-21T20:21:00.567Z,6.40
2022-09-21T20:23:28.086Z,6.63
2022-09-21T20:26:01.030Z,5.90
2022-09-21T20:28:28.385Z,5.90
2022-09-21T20:30:55.835Z,5.80
2022-09-21T20:33:24.351Z,7.38
2022-09-21T20:35:55.695Z,10.90
2022-09-21T20:38:23.385Z,10.25
2022-09-21T20:40:51.851Z,8.57
2022-09-21T20:43:19.756Z,9.48
2022-09-21T20:45:49.549Z,6.18
2022-09-21T20:48:17.462Z,6.03
2022-09-21T20:50:50.901Z,7.97
2022-09-21T20:53:19.638Z,6.68
2022-09-21T20:55:55.448Z,5.60
2022-09-21T20:58:22.953Z,5.63
2022-09-21T21:00:52.261Z,5.07
2022-09-21T21:03:22.349Z,5.60
2022-09-21T21:05:49.436Z,6.55
2022-09-21T21:08:17.040Z,6.82
2022-09-21T21:10:47.390Z,5.88
2022-09-21T21:15:41.748Z,8.85
2022-09-21T21:18:11.890Z,8.52
2022-09-21T21:20:39.567Z,7.78
2022-09-21T21:23:08.332Z,9.13
2022-09-21T21:25:35.869Z,11.75
2022-09-21T21:28:03.466Z,10.57
2022-09-21T21:30:31.620Z,8.45
2022-09-21T21:32:58.969Z,12.05
2022-09-21T21:35:26.293Z,10.88
2022-09-21T21:37:53.588Z,11.18
2022-09-21T21:40:21.092Z,7.70
2022-09-21T21:42:48.412Z,8.52
2022-09-21T21:45:15.555Z,7.85
2022-09-21T21:47:42.616Z,6.65
2022-09-21T21:50:10.989Z,6.97
2022-09-21T21:52:38.442Z,7.25
2022-09-21T21:55:06.719Z,5.55
2022-09-21T21:57:33.772Z,8.65
2022-09-21T22:00:01.008Z,8.88
2022-09-21T22:02:29.682Z,9.45
2022-09-21T22:04:56.791Z,7.35
2022-09-21T22:07:24.051Z,7.50
2022-09-21T22:09:51.373Z,7.95
2022-09-21T22:12:18.485Z,6.75
2022-09-21T22:14:46.638Z,6.85
2022-09-21T22:17:14.863Z,10.85
2022-09-21T22:19:42.860Z,10.15
2022-09-21T22:22:10.088Z,8.80
2022-09-21T22:24:37.357Z,7.43
2022-09-21T22:27:04.547Z,9.52
2022-09-21T22:29:31.923Z,11.40
2022-09-21T22:31:59.026Z,7.38
2022-09-21T22:34:26.228Z,11.07
2022-09-21T22:36:54.016Z,6.95
2022-09-21T22:39:21.759Z,8.48
2022-09-21T22:41:48.696Z,7.88
2022-09-21T22:44:16.130Z,6.88
2022-09-21T22:46:43.170Z,7.20
2022-09-21T22:49:10.381Z,6.00
2022-09-21T22:51:38.371Z,8.10
2022-09-21T22:54:05.751Z,7.22
2022-09-21T22:56:34.289Z,8.68
2022-09-21T22:59:03.047Z,7.47
2022-09-21T23:01:31.767Z,7.97
2022-09-21T23:04:07.028Z,7.47
2022-09-21T23:06:36.805Z,6.75
2022-09-21T23:09:07.992Z,6.70
2022-09-21T23:11:42.961Z,7.88
2022-09-21T23:14:11.965Z,6.00
2022-09-21T23:16:39.218Z,6.30
2022-09-21T23:19:07.623Z,7.03
2022-09-21T23:21:35.027Z,6.18
2022-09-21T23:24:03.268Z,8.30
2022-09-21T23:26:32.353Z,5.80
2022-09-21T23:29:02.237Z,6.45
2022-09-21T23:31:31.792Z,7.15
2022-09-21T23:34:03.185Z,7.75
2022-09-21T23:36:31.536Z,6.50
2022-09-21T23:38:59.141Z,7.53
2022-09-21T23:41:28.714Z,11.80
2022-09-21T23:43:56.882Z,5.80
2022-09-21T23:46:29.167Z,8.02
2022-09-21T23:48:57.657Z,6.85
2022-09-21T23:51:25.779Z,6.82
2022-09-21T23:53:53.523Z,8.18
2022-09-21T23:56:22.688Z,7.28
2022-09-21T23:58:50.601Z,8.20
